Time;durP1;ratioP1;P1;durP2;ratioP2;P2;SDS_P1;SDS_P2;PMS_P1;PMS_P2;Temp;Humidity;BMP_temperature;BMP_pressure;BME280_temperature;BME280_humidity;BME280_pressure;Samples;Min_cycle;Max_cycle;Signal;HPM_P1;HPM_P2
2023/06/10 00:02:07;;;;;;;;;;;;;;;24.86;40.03;100300.80;103211;1293;62228;-84
2023/06/10 00:04:33;;;;;;;;;;;;;;;24.85;40.09;100300.11;103329;1291;61280;-84
2023/06/10 00:07:00;;;;;;;;;;;;;;;24.85;40.10;100298.19;103359;1289;62444;-84
2023/06/10 00:09:26;;;;;;;;;;;;;;;24.85;40.14;100295.46;103108;1289;61315;-83
2023/06/10 00:11:52;;;;;;;;;;;;;;;24.85;40.08;100294.41;103210;1289;61848;-83
2023/06/10 00:14:17;;;;;;;;;;;;;;;24.84;40.15;100292.81;103295;1289;61315;-84
2023/06/10 00:16:44;;;;;;;;;;;;;;;24.84;40.26;100286.51;103215;1289;61490;-84
2023/06/10 00:19:13;;;;;;;;;;;;;;;24.84;40.29;100282.77;103335;1288;61596;-84
2023/06/10 00:21:40;;;;;;;;;;;;;;;24.84;40.28;100281.71;103160;1288;65693;-83
2023/06/10 00:24:06;;;;;;;;;;;;;;;24.84;40.16;100283.64;103126;1289;61802;-84
2023/06/10 00:26:32;;;;;;;;;;;;;;;24.84;40.21;100283.14;103241;1289;61791;-84
2023/06/10 00:28:57;;;;;;;;;;;;;;;24.85;40.25;100285.26;103100;1289;62086;-84
2023/06/10 00:31:23;;;;;;;;;;;;;;;24.84;40.28;100282.59;103221;1292;61321;-83
2023/06/10 00:33:49;;;;;;;;;;;;;;;24.84;40.26;100281.55;103270;1292;62410;-84
2023/06/10 00:36:15;;;;;;;;;;;;;;;24.84;40.34;100287.30;103088;1288;61298;-83
2023/06/10 00:38:40;;;;;;;;;;;;;;;24.83;40.32;100284.27;103147;1289;61367;-84
2023/06/10 00:41:06;;;;;;;;;;;;;;;24.83;40.26;100281.94;103249;1292;72284;-84
2023/06/10 00:43:32;;;;;;;;;;;;;;;24.84;40.22;100282.27;103121;1288;61439;-84
2023/06/10 00:45:57;;;;;;;;;;;;;;;24.83;40.28;100278.53;103080;1294;61391;-83
2023/06/10 00:48:23;;;;;;;;;;;;;;;24.83;40.31;100277.99;103251;1288;62544;-84
2023/06/10 00:50:50;;;;;;;;;;;;;;;24.83;40.29;100280.70;103303;1288;61394;-83
2023/06/10 00:53:16;;;;;;;;;;;;;;;24.83;40.41;100281.60;103066;1289;73304;-84
2023/06/10 00:55:43;;;;;;;;;;;;;;;24.83;40.33;100284.66;103099;1289;61499;-84
2023/06/10 00:58:27;;;;;;;;;;;;;;;24.83;40.38;100284.13;103201;1289;62421;-84
2023/06/10 01:07:14;;;;;;;;;;;;;;;24.83;40.40;100292.63;103107;1288;74584;-84
2023/06/10 01:09:59;;;;;;;;;;;;;;;24.83;40.38;100297.52;103271;1288;63251;-84
2023/06/10 01:12:48;;;;;;;;;;;;;;;24.83;40.42;100297.13;103107;1288;61758;-84
2023/06/10 01:15:17;;;;;;;;;;;;;;;24.83;40.46;100292.66;103255;1288;73713;-84
2023/06/10 01:17:57;;;;;;;;;;;;;;;24.82;40.48;100293.38;103094;1288;75679;-84
2023/06/10 01:20:27;;;;;;;;;;;;;;;24.83;40.59;100293.91;103158;1288;61302;-84
2023/06/10 01:22:56;;;;;;;;;;;;;;;24.82;40.52;100296.81;103278;1288;61391;-84
2023/06/10 01:25:27;;;;;;;;;;;;;;;24.82;40.44;100294.51;103149;1293;73536;-84
2023/06/10 01:28:13;;;;;;;;;;;;;;;24.82;40.47;100296.27;103098;1289;75386;-84
2023/06/10 01:30:41;;;;;;;;;;;;;;;24.82;40.58;100291.42;103177;1289;61900;-84
2023/06/10 01:33:07;;;;;;;;;;;;;;;24.82;40.53;100293.05;102885;1293;61587;-84
2023/06/10 01:35:33;;;;;;;;;;;;;;;24.82;40.55;100295.94;103182;1292;62691;-84
2023/06/10 01:37:59;;;;;;;;;;;;;;;24.82;40.56;100295.76;103274;1289;61365;-84
2023/06/10 01:40:24;;;;;;;;;;;;;;;24.82;40.49;100300.60;103213;1289;62284;-84
2023/06/10 01:42:53;;;;;;;;;;;;;;;24.82;40.50;100297.92;103168;1289;61375;-84
2023/06/10 01:45:19;;;;;;;;;;;;;;;24.82;40.51;100296.50;103164;1289;61365;-84
2023/06/10 01:47:45;;;;;;;;;;;;;;;24.82;40.49;100295.05;103248;1288;62532;-84
2023/06/10 01:50:11;;;;;;;;;;;;;;;24.82;40.51;100296.34;103222;1289;61387;-83
2023/06/10 01:52:37;;;;;;;;;;;;;;;24.81;40.57;100296.90;103136;1289;62511;-84
2023/06/10 01:55:03;;;;;;;;;;;;;;;24.82;40.56;100293.09;102994;1288;61308;-83
2023/06/10 01:57:28;;;;;;;;;;;;;;;24.81;40.61;100293.54;103355;1289;62234;-83
2023/06/10 01:59:55;;;;;;;;;;;;;;;24.81;40.63;100298.23;103124;1288;61374;-84
2023/06/10 02:02:22;;;;;;;;;;;;;;;24.81;40.54;100301.43;103096;1289;61401;-84
2023/06/10 02:04:47;;;;;;;;;;;;;;;24.81;40.69;100304.88;103241;1292;61343;-84
2023/06/10 02:07:13;;;;;;;;;;;;;;;24.81;40.66;100308.63;103263;1289;62407;-84
2023/06/10 02:09:38;;;;;;;;;;;;;;;24.80;40.60;100305.29;103142;1288;61534;-84
2023/06/10 02:12:04;;;;;;;;;;;;;;;24.81;40.57;100304.89;103136;1294;62022;-84
2023/06/10 02:14:32;;;;;;;;;;;;;;;24.80;40.73;100303.35;103191;1288;62028;-84
2023/06/10 02:16:57;;;;;;;;;;;;;;;24.80;40.72;100301.90;103235;1289;61503;-84
2023/06/10 02:19:26;;;;;;;;;;;;;;;24.80;40.61;100296.48;103149;1294;61924;-84
2023/06/10 02:21:52;;;;;;;;;;;;;;;24.80;40.71;100301.02;103089;1289;66915;-83
2023/06/10 02:24:17;;;;;;;;;;;;;;;24.80;40.59;100304.79;103151;1288;62572;-85
2023/06/10 02:26:43;;;;;;;;;;;;;;;24.79;40.62;100308.06;103189;1288;61407;-84
2023/06/10 02:29:08;;;;;;;;;;;;;;;24.80;40.76;100307.48;103145;1289;62456;-85
2023/06/10 02:31:35;;;;;;;;;;;;;;;24.79;40.73;100305.58;103139;1294;61295;-84
2023/06/10 02:34:02;;;;;;;;;;;;;;;24.79;40.69;100300.88;103261;1288;75414;-84
2023/06/10 02:36:29;;;;;;;;;;;;;;;24.79;40.85;100301.08;102959;1288;61394;-84
2023/06/10 02:38:55;;;;;;;;;;;;;;;24.78;40.75;100306.35;103238;1288;62541;-84
2023/06/10 02:41:21;;;;;;;;;;;;;;;24.78;40.83;100307.60;103138;1288;62442;-84
2023/06/10 02:43:47;;;;;;;;;;;;;;;24.79;40.75;100307.75;103141;1293;61339;-84
2023/06/10 02:46:12;;;;;;;;;;;;;;;24.78;40.75;100308.14;103162;1288;62410;-84
2023/06/10 02:48:45;;;;;;;;;;;;;;;24.79;40.80;100309.56;103249;1289;61346;-84
2023/06/10 02:51:11;;;;;;;;;;;;;;;24.78;40.75;100308.17;103113;1289;72488;-84
2023/06/10 02:53:37;;;;;;;;;;;;;;;24.79;40.66;100309.20;103224;1292;61384;-84
2023/06/10 02:56:02;;;;;;;;;;;;;;;24.78;40.88;100312.09;103177;1289;61691;-84
2023/06/10 02:58:28;;;;;;;;;;;;;;;24.78;40.81;100311.75;103254;1288;61428;-84
2023/06/10 03:00:54;;;;;;;;;;;;;;;24.79;40.86;100314.96;103276;1288;61315;-84
2023/06/10 03:03:22;;;;;;;;;;;;;;;24.79;40.75;100316.05;103251;1295;61415;-84
2023/06/10 03:05:48;;;;;;;;;;;;;;;24.79;40.85;100316.93;103094;1289;61397;-84
2023/06/10 03:08:14;;;;;;;;;;;;;;;24.79;40.88;100310.10;103140;1288;61435;-84
2023/06/10 03:10:40;;;;;;;;;;;;;;;24.79;40.95;100309.20;103128;1289;61873;-84
2023/06/10 03:13:09;;;;;;;;;;;;;;;24.79;40.91;100310.94;103095;1289;61326;-84
2023/06/10 03:15:36;;;;;;;;;;;;;;;24.79;40.91;100315.09;103129;1288;61547;-84
2023/06/10 03:18:02;;;;;;;;;;;;;;;24.80;40.93;100318.29;103156;1289;61312;-84
2023/06/10 03:20:28;;;;;;;;;;;;;;;24.80;40.91;100314.67;103257;1288;62053;-84
2023/06/10 03:22:54;;;;;;;;;;;;;;;24.80;41.00;100311.27;103125;1292;61363;-84
2023/06/10 03:25:20;;;;;;;;;;;;;;;24.80;40.89;100311.98;103175;1289;61598;-84
2023/06/10 03:27:46;;;;;;;;;;;;;;;24.79;40.99;100312.02;103253;1292;61388;-84
2023/06/10 03:30:13;;;;;;;;;;;;;;;24.80;40.90;100315.54;103242;1288;62539;-84
2023/06/10 03:32:38;;;;;;;;;;;;;;;24.80;40.97;100309.29;103184;1288;61378;-84
2023/06/10 03:35:04;;;;;;;;;;;;;;;24.80;41.03;100306.73;103356;1289;61370;-84
2023/06/10 03:37:29;;;;;;;;;;;;;;;24.80;40.96;100309.42;103378;1289;61433;-85
2023/06/10 03:39:55;;;;;;;;;;;;;;;24.80;40.94;100306.53;103430;1289;61282;-84
2023/06/10 03:42:20;;;;;;;;;;;;;;;24.80;41.00;100309.05;103265;1289;61480;-84
2023/06/10 03:44:46;;;;;;;;;;;;;;;24.80;40.93;100313.91;103167;1289;61377;-84
2023/06/10 03:47:12;;;;;;;;;;;;;;;24.81;40.93;100313.86;103224;1289;61377;-84
2023/06/10 03:49:40;;;;;;;;;;;;;;;24.81;41.02;100314.59;103079;1294;61337;-83
2023/06/10 03:52:06;;;;;;;;;;;;;;;24.80;40.87;100316.64;103235;1289;61460;-84
2023/06/10 03:54:31;;;;;;;;;;;;;;;24.81;40.99;100319.82;103102;1289;62311;-84
2023/06/10 03:56:57;;;;;;;;;;;;;;;24.81;41.15;100318.21;103102;1289;61404;-84
2023/06/10 03:59:23;;;;;;;;;;;;;;;24.81;40.94;100319.06;103204;1289;61464;-84
2023/06/10 04:01:49;;;;;;;;;;;;;;;24.81;41.12;100323.95;103125;1289;61400;-84
2023/06/10 04:04:16;;;;;;;;;;;;;;;24.81;41.08;100321.39;103199;1289;61365;-84
2023/06/10 04:06:43;;;;;;;;;;;;;;;24.81;40.90;100319.20;103254;1288;63841;-84
2023/06/10 04:09:09;;;;;;;;;;;;;;;24.82;41.01;100315.42;103185;1289;66688;-84
2023/06/10 04:11:35;;;;;;;;;;;;;;;24.82;41.17;100314.68;103093;1292;62306;-84
2023/06/10 04:14:01;;;;;;;;;;;;;;;24.82;41.17;100309.60;103172;1289;61324;-84
2023/06/10 04:16:27;;;;;;;;;;;;;;;24.83;40.99;100314.60;103124;1289;62514;-84
2023/06/10 04:18:54;;;;;;;;;;;;;;;24.83;41.08;100318.71;103120;1294;62420;-84
2023/06/10 04:21:20;;;;;;;;;;;;;;;24.83;41.10;100322.29;103140;1289;61289;-84
2023/06/10 04:23:45;;;;;;;;;;;;;;;24.84;41.03;100323.85;103327;1291;61369;-84
2023/06/10 04:26:12;;;;;;;;;;;;;;;24.84;41.03;100328.98;103206;1289;61385;-84
2023/06/10 04:28:37;;;;;;;;;;;;;;;24.85;41.15;100333.05;103164;1289;64677;-83
2023/06/10 04:31:04;;;;;;;;;;;;;;;24.86;41.13;100335.33;103139;1289;61815;-83
2023/06/10 04:33:30;;;;;;;;;;;;;;;24.85;41.08;100337.38;103127;1289;61379;-83
2023/06/10 04:35:55;;;;;;;;;;;;;;;24.86;40.98;100338.06;103192;1290;61941;-84
2023/06/10 04:38:21;;;;;;;;;;;;;;;24.86;41.17;100332.44;103123;1289;61382;-84
2023/06/10 04:40:48;;;;;;;;;;;;;;;24.86;41.15;100326.50;103359;1289;61391;-84
2023/06/10 04:43:13;;;;;;;;;;;;;;;24.86;41.13;100329.00;103203;1293;62659;-84
2023/06/10 04:45:39;;;;;;;;;;;;;;;24.86;41.13;100329.90;103166;1289;62408;-84
2023/06/10 04:48:05;;;;;;;;;;;;;;;24.87;41.08;100327.71;103431;1289;61201;-83
2023/06/10 04:50:32;;;;;;;;;;;;;;;24.87;41.19;100327.91;103139;1289;61296;-83
2023/06/10 04:52:58;;;;;;;;;;;;;;;24.87;41.09;100328.42;103379;1289;65770;-84
2023/06/10 04:55:24;;;;;;;;;;;;;;;24.87;41.13;100333.39;103135;1289;61400;-84
2023/06/10 04:57:50;;;;;;;;;;;;;;;24.86;41.12;100335.16;103217;1289;61455;-84
2023/06/10 05:00:15;;;;;;;;;;;;;;;24.86;41.23;100340.50;103310;1289;61631;-84
2023/06/10 05:02:41;;;;;;;;;;;;;;;24.87;41.25;100338.11;103151;1289;62385;-84
2023/06/10 05:05:07;;;;;;;;;;;;;;;24.87;41.13;100341.68;103379;1287;61316;-84
2023/06/10 05:07:32;;;;;;;;;;;;;;;24.88;41.12;100343.60;103057;1292;61369;-84
2023/06/10 05:09:58;;;;;;;;;;;;;;;24.89;41.12;100343.54;103349;1289;61318;-85
2023/06/10 05:12:24;;;;;;;;;;;;;;;24.89;41.18;100341.65;103120;1289;61478;-84
2023/06/10 05:14:50;;;;;;;;;;;;;;;24.90;41.27;100343.41;103103;1289;62566;-84
2023/06/10 05:17:16;;;;;;;;;;;;;;;24.90;41.16;100345.21;103173;1289;61426;-84
2023/06/10 05:19:43;;;;;;;;;;;;;;;24.90;41.22;100348.25;103323;1289;61383;-84
2023/06/10 05:22:08;;;;;;;;;;;;;;;24.90;41.27;100349.64;103206;1289;62230;-84
2023/06/10 05:24:34;;;;;;;;;;;;;;;24.91;41.22;100349.61;103222;1289;61465;-84
2023/06/10 05:26:59;;;;;;;;;;;;;;;24.91;41.32;100348.13;102788;1292;61714;-84
2023/06/10 05:29:25;;;;;;;;;;;;;;;24.92;41.21;100346.79;102906;1294;61435;-84
2023/06/10 05:31:51;;;;;;;;;;;;;;;24.92;41.12;100343.21;102922;1292;62597;-84
2023/06/10 05:34:17;;;;;;;;;;;;;;;24.92;41.20;100336.20;102857;1291;61949;-84
2023/06/10 05:36:43;;;;;;;;;;;;;;;24.92;41.19;100341.73;102935;1292;61385;-83
2023/06/10 05:39:09;;;;;;;;;;;;;;;24.92;41.24;100334.55;102914;1294;62651;-85
2023/06/10 05:41:34;;;;;;;;;;;;;;;24.92;41.20;100331.80;102893;1292;62321;-84
2023/06/10 05:44:00;;;;;;;;;;;;;;;24.93;41.30;100333.05;102799;1292;61324;-84
2023/06/10 05:46:25;;;;;;;;;;;;;;;24.93;41.29;100333.41;102963;1292;62652;-84
2023/06/10 05:48:51;;;;;;;;;;;;;;;24.93;41.35;100334.16;102887;1290;61355;-84
2023/06/10 05:51:16;;;;;;;;;;;;;;;24.93;41.30;100332.51;102869;1292;62590;-84
2023/06/10 05:53:42;;;;;;;;;;;;;;;24.93;41.31;100332.50;102890;1291;61454;-84
2023/06/10 05:56:09;;;;;;;;;;;;;;;24.93;41.40;100334.86;102899;1292;61290;-84
2023/06/10 05:58:36;;;;;;;;;;;;;;;24.93;41.29;100336.83;103079;1289;63972;-85
2023/06/10 06:01:01;;;;;;;;;;;;;;;24.93;41.28;100336.11;103207;1293;65840;-84
2023/06/10 06:03:28;;;;;;;;;;;;;;;24.93;41.35;100339.72;103088;1289;61477;-84
2023/06/10 06:05:53;;;;;;;;;;;;;;;24.93;41.18;100339.73;103143;1287;61998;-84
2023/06/10 06:08:19;;;;;;;;;;;;;;;24.92;41.41;100334.35;103393;1287;61371;-84
2023/06/10 06:10:45;;;;;;;;;;;;;;;24.92;41.30;100335.09;103141;1289;61403;-84
2023/06/10 06:13:11;;;;;;;;;;;;;;;24.92;41.41;100338.13;103169;1289;61375;-84
2023/06/10 06:15:37;;;;;;;;;;;;;;;24.92;41.38;100337.98;103390;1289;61414;-84
2023/06/10 06:18:03;;;;;;;;;;;;;;;24.92;41.43;100340.48;103233;1289;61848;-84
2023/06/10 06:20:30;;;;;;;;;;;;;;;24.92;41.39;100340.14;103115;1294;64035;-84
2023/06/10 06:22:56;;;;;;;;;;;;;;;24.92;41.43;100346.08;103352;1289;66804;-84
2023/06/10 06:25:21;;;;;;;;;;;;;;;24.92;41.45;100347.53;103132;1292;62392;-84
2023/06/10 06:27:47;;;;;;;;;;;;;;;24.92;41.35;100345.69;103147;1289;61314;-84
2023/06/10 06:30:13;;;;;;;;;;;;;;;24.92;41.48;100346.26;103152;1289;61487;-84
2023/06/10 06:32:39;;;;;;;;;;;;;;;24.92;41.43;100344.09;103132;1289;62892;-84
2023/06/10 06:35:07;;;;;;;;;;;;;;;24.92;41.35;100337.30;103235;1289;61291;-85
2023/06/10 06:37:33;;;;;;;;;;;;;;;24.92;41.45;100332.93;103085;1294;61396;-83
2023/06/10 06:39:58;;;;;;;;;;;;;;;24.92;41.47;100329.71;103231;1288;61496;-85
2023/06/10 06:42:26;;;;;;;;;;;;;;;24.91;41.51;100327.58;103174;1293;61388;-84
2023/06/10 06:44:51;;;;;;;;;;;;;;;24.92;41.42;100324.83;103169;1289;62643;-84
2023/06/10 06:47:20;;;;;;;;;;;;;;;24.92;41.50;100322.86;103167;1289;61336;-83
2023/06/10 06:49:46;;;;;;;;;;;;;;;24.92;41.43;100323.73;103363;1287;61382;-84
2023/06/10 06:52:12;;;;;;;;;;;;;;;24.92;41.39;100323.20;103164;1294;61440;-84
2023/06/10 06:54:38;;;;;;;;;;;;;;;24.92;41.51;100322.64;103152;1289;61487;-84
2023/06/10 06:57:03;;;;;;;;;;;;;;;24.92;41.52;100322.50;103151;1289;61854;-84
2023/06/10 06:59:29;;;;;;;;;;;;;;;24.93;41.58;100323.35;103104;1289;61493;-84
2023/06/10 07:01:54;;;;;;;;;;;;;;;24.93;41.58;100322.08;103328;1289;61372;-84
2023/06/10 07:04:21;;;;;;;;;;;;;;;24.93;41.51;100321.52;103155;1289;61948;-84
2023/06/10 07:06:47;;;;;;;;;;;;;;;24.93;41.47;100322.77;103373;1288;66584;-84
2023/06/10 07:09:14;;;;;;;;;;;;;;;24.93;41.60;100319.38;103187;1289;61801;-84
2023/06/10 07:11:39;;;;;;;;;;;;;;;24.94;41.69;100316.61;103346;1289;61471;-84
2023/06/10 07:14:06;;;;;;;;;;;;;;;24.95;41.57;100317.80;102597;1289;715898;-84
2023/06/10 07:16:31;;;;;;;;;;;;;;;24.95;41.62;100315.80;103141;1291;61291;-84
2023/06/10 07:18:57;;;;;;;;;;;;;;;24.95;41.53;100313.42;103176;1286;61985;-84
2023/06/10 07:21:23;;;;;;;;;;;;;;;24.96;41.53;100311.58;103364;1289;61311;-85
2023/06/10 07:23:48;;;;;;;;;;;;;;;24.96;41.57;100312.63;103182;1287;62490;-84
2023/06/10 07:26:14;;;;;;;;;;;;;;;24.96;41.61;100312.42;103357;1289;61379;-84
2023/06/10 07:28:40;;;;;;;;;;;;;;;24.96;41.45;100307.94;103129;1294;61402;-84
2023/06/10 07:31:07;;;;;;;;;;;;;;;24.96;41.40;100307.20;103129;1289;61397;-84
2023/06/10 07:33:32;;;;;;;;;;;;;;;24.97;41.65;100307.14;103183;1289;61509;-84
2023/06/10 07:35:59;;;;;;;;;;;;;;;24.96;41.68;100308.96;103099;1289;61922;-84
2023/06/10 07:38:25;;;;;;;;;;;;;;;24.97;41.61;100304.41;103203;1293;61368;-85
2023/06/10 07:40:51;;;;;;;;;;;;;;;24.98;41.65;100304.73;103303;1289;61775;-85
2023/06/10 07:43:16;;;;;;;;;;;;;;;24.98;41.53;100308.29;103361;1289;61356;-84
2023/06/10 07:45:43;;;;;;;;;;;;;;;24.98;41.58;100308.09;103270;1288;61330;-84
2023/06/10 07:48:09;;;;;;;;;;;;;;;24.99;41.56;100307.16;103286;1289;63834;-84
2023/06/10 07:50:34;;;;;;;;;;;;;;;24.99;41.61;100303.20;103322;1288;61385;-85
2023/06/10 07:53:00;;;;;;;;;;;;;;;24.98;41.59;100305.56;103182;1293;61530;-84
2023/06/10 07:55:28;;;;;;;;;;;;;;;24.99;41.58;100305.11;103178;1289;61429;-84
2023/06/10 07:57:53;;;;;;;;;;;;;;;25.00;41.67;100306.33;103367;1289;61423;-84
2023/06/10 08:00:19;;;;;;;;;;;;;;;25.00;41.65;100302.34;103320;1287;61699;-85
2023/06/10 08:02:45;;;;;;;;;;;;;;;24.99;41.72;100302.41;103224;1289;61394;-83
2023/06/10 08:05:11;;;;;;;;;;;;;;;25.00;41.78;100303.42;103165;1294;62001;-84
2023/06/10 08:07:36;;;;;;;;;;;;;;;25.00;41.75;100301.04;103111;1289;62560;-84
2023/06/10 08:10:03;;;;;;;;;;;;;;;25.00;41.62;100305.22;103184;1289;61420;-83
2023/06/10 08:12:29;;;;;;;;;;;;;;;25.00;41.73;100303.56;103177;1289;63634;-83
2023/06/10 08:14:54;;;;;;;;;;;;;;;25.00;41.66;100305.69;103339;1289;61378;-83
2023/06/10 08:17:20;;;;;;;;;;;;;;;25.01;41.63;100303.34;103146;1289;61309;-84
2023/06/10 08:19:46;;;;;;;;;;;;;;;25.01;41.62;100300.80;103340;1289;62475;-84
2023/06/10 08:22:12;;;;;;;;;;;;;;;25.01;41.87;100295.92;103094;1287;63867;-84
2023/06/10 08:24:37;;;;;;;;;;;;;;;25.01;41.81;100296.97;103177;1289;61544;-84
2023/06/10 08:27:03;;;;;;;;;;;;;;;25.02;41.70;100298.18;103107;1289;62074;-84
2023/06/10 08:29:31;;;;;;;;;;;;;;;25.02;41.68;100299.25;103361;1289;61977;-83
2023/06/10 08:32:11;;;;;;;;;;;;;;;25.02;41.71;100297.83;103163;1289;61309;-84
2023/06/10 08:34:37;;;;;;;;;;;;;;;25.02;41.68;100295.83;103185;1289;74517;-84
2023/06/10 08:37:03;;;;;;;;;;;;;;;25.02;41.59;100302.88;103191;1289;61445;-84
2023/06/10 08:39:32;;;;;;;;;;;;;;;25.02;41.68;100303.56;103261;1289;61376;-84
2023/06/10 08:42:00;;;;;;;;;;;;;;;25.02;41.78;100304.79;103171;1289;64588;-84
2023/06/10 08:44:30;;;;;;;;;;;;;;;25.02;41.70;100300.33;103306;1289;66837;-84
2023/06/10 08:47:00;;;;;;;;;;;;;;;25.02;41.76;100297.59;103375;1289;62407;-84
2023/06/10 08:49:26;;;;;;;;;;;;;;;25.03;41.61;100295.23;103206;1292;61402;-84
2023/06/10 08:51:58;;;;;;;;;;;;;;;25.03;41.73;100293.21;103368;1288;61298;-84
2023/06/10 08:54:25;;;;;;;;;;;;;;;25.03;41.65;100292.61;103318;1289;66839;-84
2023/06/10 08:56:51;;;;;;;;;;;;;;;25.04;41.77;100290.83;103223;1289;61297;-84
2023/06/10 08:59:16;;;;;;;;;;;;;;;25.03;41.68;100290.51;103248;1289;62443;-84
2023/06/10 09:01:42;;;;;;;;;;;;;;;25.03;41.89;100285.65;103220;1289;61391;-84
2023/06/10 09:04:08;;;;;;;;;;;;;;;25.03;41.81;100287.27;103258;1289;61897;-84
2023/06/10 09:06:34;;;;;;;;;;;;;;;25.03;41.71;100286.33;103392;1289;61411;-84
2023/06/10 09:09:00;;;;;;;;;;;;;;;25.04;41.78;100283.79;103199;1289;61397;-84
2023/06/10 09:11:26;;;;;;;;;;;;;;;25.04;41.79;100285.70;103305;1291;61390;-84
2023/06/10 09:13:52;;;;;;;;;;;;;;;25.05;41.83;100281.52;103287;1289;63797;-84
2023/06/10 09:16:17;;;;;;;;;;;;;;;25.05;41.87;100282.76;103090;1289;62637;-84
2023/06/10 09:18:43;;;;;;;;;;;;;;;25.06;41.77;100282.09;103317;1289;61541;-84
2023/06/10 09:21:08;;;;;;;;;;;;;;;25.06;41.71;100281.20;103314;1288;62500;-84
2023/06/10 09:23:34;;;;;;;;;;;;;;;25.07;41.77;100277.55;103212;1292;61359;-84
2023/06/10 09:25:59;;;;;;;;;;;;;;;25.07;41.84;100278.48;103105;1289;64849;-84
2023/06/10 09:28:25;;;;;;;;;;;;;;;25.06;41.73;100275.06;103134;1294;61347;-83
2023/06/10 09:30:55;;;;;;;;;;;;;;;25.07;41.62;100270.85;103131;1289;61375;-84
2023/06/10 09:33:24;;;;;;;;;;;;;;;25.07;41.68;100271.36;103145;1289;61269;-84
2023/06/10 09:35:51;;;;;;;;;;;;;;;25.07;41.66;100266.50;103177;1289;63827;-84
2023/06/10 09:38:21;;;;;;;;;;;;;;;25.08;41.79;100270.96;103301;1288;65731;-83
2023/06/10 09:40:50;;;;;;;;;;;;;;;25.08;41.70;100267.15;103188;1294;61270;-84
2023/06/10 09:43:16;;;;;;;;;;;;;;;25.08;41.75;100261.19;103357;1289;61295;-84
2023/06/10 09:45:43;;;;;;;;;;;;;;;25.09;41.78;100262.58;103143;1289;61463;-84
2023/06/10 09:48:08;;;;;;;;;;;;;;;25.09;41.80;100260.79;103384;1287;61291;-84
2023/06/10 09:50:34;;;;;;;;;;;;;;;25.09;41.61;100257.73;103234;1289;63499;-84
2023/06/10 09:53:02;;;;;;;;;;;;;;;25.10;41.61;100256.90;103136;1289;61953;-84
2023/06/10 09:55:27;;;;;;;;;;;;;;;25.09;41.64;100256.43;103178;1293;61371;-84
2023/06/10 09:57:53;;;;;;;;;;;;;;;25.10;41.71;100256.89;103155;1287;61896;-84
2023/06/10 10:00:19;;;;;;;;;;;;;;;25.10;41.65;100252.90;103174;1292;62303;-83
2023/06/10 10:02:50;;;;;;;;;;;;;;;25.10;41.74;100250.57;103385;1289;61261;-83
2023/06/10 10:05:16;;;;;;;;;;;;;;;25.10;41.88;100249.29;103222;1289;63847;-83
2023/06/10 10:07:42;;;;;;;;;;;;;;;25.10;41.74;100248.91;103211;1289;61484;-84
2023/06/10 10:10:09;;;;;;;;;;;;;;;25.10;41.64;100248.55;103171;1290;62620;-84
2023/06/10 10:12:35;;;;;;;;;;;;;;;25.10;41.69;100245.31;103135;1287;61308;-84
2023/06/10 10:15:00;;;;;;;;;;;;;;;25.10;41.70;100240.09;103317;1291;61477;-83
2023/06/10 10:17:26;;;;;;;;;;;;;;;25.11;41.78;100238.42;103179;1294;61329;-83
2023/06/10 10:19:57;;;;;;;;;;;;;;;25.10;41.63;100232.94;103212;1289;61375;-83
2023/06/10 10:22:27;;;;;;;;;;;;;;;25.10;41.67;100234.89;103196;1289;62510;-84
2023/06/10 10:24:56;;;;;;;;;;;;;;;25.12;41.71;100233.70;103347;1292;65053;-84
2023/06/10 10:27:25;;;;;;;;;;;;;;;25.11;41.63;100233.73;103709;1288;65815;-84
2023/06/10 10:29:52;;;;;;;;;;;;;;;25.12;41.54;100231.00;103540;1291;62484;-84
2023/06/10 10:32:18;;;;;;;;;;;;;;;25.12;41.58;100224.15;103220;1290;61200;-84
2023/06/10 10:34:47;;;;;;;;;;;;;;;25.12;41.74;100221.79;103114;1289;64118;-84
2023/06/10 10:37:12;;;;;;;;;;;;;;;25.12;41.73;100223.21;103397;1291;65811;-83
2023/06/10 10:39:38;;;;;;;;;;;;;;;25.12;41.74;100222.88;103382;1289;61361;-83
2023/06/10 10:42:04;;;;;;;;;;;;;;;25.12;41.56;100219.77;103095;1294;61385;-84
2023/06/10 10:44:30;;;;;;;;;;;;;;;25.13;41.69;100223.66;103227;1289;62394;-83
2023/06/10 10:46:56;;;;;;;;;;;;;;;25.13;41.71;100219.67;103264;1289;61330;-84
2023/06/10 10:49:22;;;;;;;;;;;;;;;25.13;41.62;100213.21;103544;1289;61269;-84
2023/06/10 10:51:54;;;;;;;;;;;;;;;25.13;41.72;100207.97;103389;1294;61371;-84
2023/06/10 10:54:20;;;;;;;;;;;;;;;25.13;41.68;100206.88;103223;1293;61407;-83
2023/06/10 10:57:04;;;;;;;;;;;;;;;25.14;41.72;100205.38;103216;1289;61478;-84
2023/06/10 11:00:07;;;;;;;;;;;;;;;25.14;41.87;100203.02;103327;1291;66573;-83
2023/06/10 11:02:33;;;;;;;;;;;;;;;25.15;41.69;100200.42;102395;1296;61806;-83
2023/06/10 11:04:59;;;;;;;;;;;;;;;25.15;41.66;100197.17;102686;1296;61439;-84
2023/06/10 11:07:25;;;;;;;;;;;;;;;25.16;41.62;100197.48;102421;1297;61577;-83
2023/06/10 11:10:03;;;;;;;;;;;;;;;25.16;41.71;100195.31;102377;1298;61478;-83
2023/06/10 11:12:42;;;;;;;;;;;;;;;25.16;41.58;100193.30;102722;1297;61487;-84
2023/06/10 11:15:07;;;;;;;;;;;;;;;25.16;41.56;100188.59;102740;1297;61624;-84
2023/06/10 11:17:34;;;;;;;;;;;;;;;25.16;41.64;100182.85;102442;1298;63950;-84
2023/06/10 11:20:00;;;;;;;;;;;;;;;25.17;41.80;100182.77;102433;1297;61408;-84
2023/06/10 11:22:26;;;;;;;;;;;;;;;25.17;41.72;100184.41;102375;1297;61511;-84
2023/06/10 11:24:51;;;;;;;;;;;;;;;25.17;41.57;100184.77;102633;1298;61559;-84
2023/06/10 11:27:24;;;;;;;;;;;;;;;25.17;41.59;100185.59;102463;1296;61949;-84
2023/06/10 11:30:21;;;;;;;;;;;;;;;25.17;41.50;100180.73;102520;1296;65886;-84
2023/06/10 11:32:51;;;;;;;;;;;;;;;25.17;41.70;100181.48;102341;1297;61374;-84
2023/06/10 11:35:17;;;;;;;;;;;;;;;25.17;41.71;100181.10;102352;1297;61380;-84
2023/06/10 11:37:42;;;;;;;;;;;;;;;25.18;41.49;100177.83;102640;1292;61680;-84
2023/06/10 11:40:08;;;;;;;;;;;;;;;25.17;41.69;100175.59;102841;1297;61562;-84
2023/06/10 11:42:38;;;;;;;;;;;;;;;25.17;41.67;100179.89;102810;1295;61482;-84
2023/06/10 11:45:06;;;;;;;;;;;;;;;25.17;41.71;100179.15;102779;1295;61697;-84
2023/06/10 11:47:31;;;;;;;;;;;;;;;25.17;41.60;100174.83;102744;1297;63611;-84
2023/06/10 11:49:57;;;;;;;;;;;;;;;25.16;41.67;100174.89;102732;1294;62563;-84
2023/06/10 11:52:40;;;;;;;;;;;;;;;25.16;41.57;100168.58;102770;1295;61572;-84
2023/06/10 11:55:06;;;;;;;;;;;;;;;25.17;41.61;100163.31;102770;1295;61372;-84
2023/06/10 11:57:34;;;;;;;;;;;;;;;25.17;41.63;100161.11;102740;1297;61499;-84
2023/06/10 12:00:03;;;;;;;;;;;;;;;25.17;41.51;100151.96;102723;1297;66046;-84
2023/06/10 12:02:29;;;;;;;;;;;;;;;25.17;41.55;100153.04;102847;1293;61442;-84
2023/06/10 12:05:10;;;;;;;;;;;;;;;25.18;41.64;100155.12;103056;1288;61348;-84
2023/06/10 12:07:35;;;;;;;;;;;;;;;25.19;41.53;100152.89;102819;1297;63804;-84
2023/06/10 12:10:02;;;;;;;;;;;;;;;25.19;41.50;100149.08;102904;1289;61956;-84
2023/06/10 12:12:27;;;;;;;;;;;;;;;25.19;41.47;100145.46;103115;1294;61343;-84
2023/06/10 12:14:59;;;;;;;;;;;;;;;25.19;41.59;100144.17;103119;1289;62216;-84
2023/06/10 12:17:33;;;;;;;;;;;;;;;25.19;41.67;100141.09;102944;1289;64895;-84
2023/06/10 12:20:00;;;;;;;;;;;;;;;25.20;41.64;100140.70;103065;1288;74297;-84
2023/06/10 12:22:26;;;;;;;;;;;;;;;25.20;41.66;100134.76;103146;1289;62296;-84
2023/06/10 12:25:01;;;;;;;;;;;;;;;25.21;41.67;100133.95;103200;1289;61403;-84
2023/06/10 12:27:29;;;;;;;;;;;;;;;25.21;41.63;100129.61;103301;1292;64576;-85
2023/06/10 12:29:55;;;;;;;;;;;;;;;25.21;41.63;100126.67;103132;1289;66978;-85
2023/06/10 12:32:22;;;;;;;;;;;;;;;25.22;41.54;100123.96;103170;1292;61380;-84